Time;durP1;ratioP1;P1;durP2;ratioP2;P2;SDS_P1;SDS_P2;PMS_P1;PMS_P2;Temp;Humidity;BMP_temperature;BMP_pressure;BME280_temperature;BME280_humidity;BME280_pressure;Samples;Min_cycle;Max_cycle;Signal;HPM_P1;HPM_P2
2024/01/13 00:00:04;;;;;;;22.25;10.82;;;3.10;99.90;;;;;;5017077;28;20033;-83
2024/01/13 00:02:30;;;;;;;24.65;11.25;;;0.60;99.90;;;;;;5032375;28;20479;-82
2024/01/13 00:04:56;;;;;;;21.13;10.18;;;0.90;99.90;;;;;;5028320;28;20044;-80
2024/01/13 00:07:22;;;;;;;20.80;10.25;;;1.70;99.90;;;;;;5049414;28;20052;-83
2024/01/13 00:09:47;;;;;;;22.60;10.63;;;0.30;99.90;;;;;;5031736;28;20132;-82
2024/01/13 00:12:13;;;;;;;22.70;10.27;;;0.50;99.90;;;;;;5034459;28;20437;-83
2024/01/13 00:14:38;;;;;;;21.08;10.32;;;0.80;99.90;;;;;;5050453;28;20041;-84
2024/01/13 00:17:04;;;;;;;22.65;11.55;;;3.60;99.90;;;;;;5028709;28;20443;-84
2024/01/13 00:19:30;;;;;;;23.48;11.10;;;;;;;;;;5031446;28;20029;-81
2024/01/13 00:21:55;;;;;;;19.88;10.27;;;0.60;99.90;;;;;;5029733;28;20537;-82
2024/01/13 00:24:21;;;;;;;24.00;11.20;;;3.30;99.90;;;;;;5029630;28;20101;-82
2024/01/13 00:26:47;;;;;;;22.63;10.75;;;;;;;;;;5022292;28;20037;-82
2024/01/13 00:29:13;;;;;;;24.10;10.88;;;;;;;;;;5043993;28;20638;-82
2024/01/13 00:31:39;;;;;;;22.55;10.63;;;0.50;99.90;;;;;;5028659;28;20398;-82
2024/01/13 00:34:05;;;;;;;23.20;12.18;;;0.50;99.90;;;;;;5045987;28;20033;-85
2024/01/13 00:36:30;;;;;;;25.33;12.02;;;0.50;99.90;;;;;;5024794;28;20498;-82
2024/01/13 00:38:56;;;;;;;23.55;11.02;;;0.50;99.90;;;;;;5029913;28;20048;-84
2024/01/13 00:41:21;;;;;;;25.33;12.20;;;2.40;99.90;;;;;;5045094;28;20025;-80
2024/01/13 00:43:50;;;;;;;24.00;10.88;;;0.50;99.90;;;;;;5051274;28;20049;-81
2024/01/13 00:46:25;;;;;;;;;;;;;;;;;;;;;
2024/01/13 00:48:52;;;;;;;25.95;12.25;;;;;;;;;;5062264;28;20574;-83
2024/01/13 00:51:18;;;;;;;22.77;11.10;;;;;;;;;;5042220;28;20098;-84
2024/01/13 00:54:00;;;;;;;26.13;12.50;;;0.50;99.90;;;;;;5037199;28;20025;-85
2024/01/13 00:56:26;;;;;;;26.88;12.70;;;;;;;;;;5044015;28;20056;-83
2024/01/13 00:58:52;;;;;;;24.85;11.75;;;;;;;;;;5037978;28;20506;-83
2024/01/13 01:01:18;;;;;;;23.77;12.75;;;;;;;;;;5034651;28;20028;-84
2024/01/13 01:03:48;;;;;;;24.67;12.35;;;0.60;99.90;;;;;;5034388;28;20120;-83
2024/01/13 01:06:14;;;;;;;25.98;12.60;;;;;;;;;;5050481;28;20033;-83
2024/01/13 01:08:51;;;;;;;23.73;11.32;;;0.60;99.90;;;;;;5048539;28;20041;-80
2024/01/13 01:11:17;;;;;;;25.05;11.70;;;;;;;;;;5052148;28;20101;-84
2024/01/13 01:13:43;;;;;;;27.10;12.80;;;0.60;99.90;;;;;;5055519;28;20112;-79
2024/01/13 01:16:10;;;;;;;25.08;11.77;;;;;;;;;;5054563;28;20504;-82
2024/01/13 01:18:36;;;;;;;27.75;12.88;;;;;;;;;;5052999;28;20028;-82
2024/01/13 01:21:02;;;;;;;23.63;12.35;;;;;;;;;;5035889;28;20532;-81
2024/01/13 01:23:28;;;;;;;26.90;13.52;;;;;;;;;;5035727;28;20033;-83
2024/01/13 01:25:54;;;;;;;28.33;13.95;;;;;;;;;;5053614;28;20036;-82
2024/01/13 01:28:22;;;;;;;29.38;13.43;;;;;;;;;;5034925;28;20048;-84
2024/01/13 01:30:48;;;;;;;30.23;12.68;;;;;;;;;;5052161;28;20033;-84
2024/01/13 01:33:14;;;;;;;29.00;13.60;;;;;;;;;;5031928;28;20032;-81
2024/01/13 01:35:40;;;;;;;28.83;13.48;;;;;;;;;;5036168;28;20049;-82
2024/01/13 01:38:06;;;;;;;23.45;12.07;;;;;;;;;;5034004;28;20171;-81
2024/01/13 01:40:35;;;;;;;29.55;13.93;;;0.70;99.90;;;;;;5051392;28;20033;-83
2024/01/13 01:43:01;;;;;;;27.25;12.57;;;;;;;;;;5034901;28;20036;-83
2024/01/13 01:45:27;;;;;;;25.75;12.73;;;;;;;;;;5058239;28;20040;-85
2024/01/13 01:47:54;;;;;;;23.95;12.13;;;0.70;99.90;;;;;;5055324;28;20082;-83
2024/01/13 01:51:00;;;;;;;27.60;13.00;;;0.70;99.90;;;;;;5054957;28;20025;-81
2024/01/13 01:53:29;;;;;;;25.27;12.27;;;0.70;99.90;;;;;;5034699;28;20091;-83
2024/01/13 01:55:55;;;;;;;27.13;13.40;;;1.90;99.90;;;;;;5051880;28;20491;-85
2024/01/13 01:58:21;;;;;;;28.02;12.93;;;;;;;;;;5051359;28;20090;-86
2024/01/13 02:00:47;;;;;;;26.80;13.02;;;;;;;;;;5050534;28;20052;-83
2024/01/13 02:03:14;;;;;;;25.33;13.02;;;;;;;;;;5030850;28;20030;-81
2024/01/13 02:05:40;;;;;;;27.65;13.23;;;;;;;;;;5045391;28;20029;-82
2024/01/13 02:08:06;;;;;;;24.60;12.13;;;2.00;99.90;;;;;;5033990;28;20048;-81
2024/01/13 02:10:33;;;;;;;30.60;14.25;;;;;;;;;;5053469;28;20489;-85
2024/01/13 02:12:59;;;;;;;29.27;13.02;;;;;;;;;;5053834;28;20213;-81
2024/01/13 02:15:25;;;;;;;31.20;13.13;;;;;;;;;;5048129;28;20171;-82
2024/01/13 02:17:51;;;;;;;30.92;13.63;;;0.60;99.90;;;;;;5033529;28;20382;-82
2024/01/13 02:20:19;;;;;;;29.38;14.02;;;;;;;;;;5052562;28;20035;-84
2024/01/13 02:22:48;;;;;;;28.17;13.82;;;;;;;;;;5031230;28;20071;-85
2024/01/13 02:25:18;;;;;;;28.48;14.05;;;0.70;99.90;;;;;;5037283;28;20048;-83
2024/01/13 02:27:54;;;;;;;32.35;13.68;;;0.70;99.90;;;;;;5057930;28;20037;-87
2024/01/13 02:30:19;;;;;;;28.15;13.18;;;2.70;99.90;;;;;;5035547;28;20029;-83
2024/01/13 02:32:45;;;;;;;29.70;13.48;;;;;;;;;;5037576;28;20082;-81
2024/01/13 02:35:12;;;;;;;24.02;12.65;;;;;;;;;;5048379;28;20047;-83
2024/01/13 02:37:38;;;;;;;25.60;12.57;;;;;;;;;;5052430;28;20028;-82
2024/01/13 02:40:04;;;;;;;26.83;13.50;;;;;;;;;;5038000;28;20025;-83
2024/01/13 02:42:31;;;;;;;24.58;12.55;;;;;;;;;;5034785;28;20025;-80
2024/01/13 02:45:00;;;;;;;27.65;13.43;;;;;;;;;;5050455;28;20122;-81
2024/01/13 02:47:39;;;;;;;26.40;12.85;;;0.70;99.90;;;;;;5051465;28;20028;-80
2024/01/13 02:50:08;;;;;;;23.73;11.15;;;0.70;99.90;;;;;;5054657;28;20036;-82
2024/01/13 02:52:37;;;;;;;25.80;12.90;;;;;;;;;;5050283;28;20056;-82
2024/01/13 02:55:06;;;;;;;28.50;13.27;;;;;;;;;;5039573;28;20025;-82
2024/01/13 02:57:32;;;;;;;27.83;12.77;;;;;;;;;;5056552;28;20037;-80
2024/01/13 02:59:58;;;;;;;23.67;12.18;;;;;;;;;;5053513;28;20080;-82
2024/01/13 03:02:24;;;;;;;23.45;11.95;;;;;;;;;;5052087;28;20025;-85
2024/01/13 03:04:50;;;;;;;21.42;11.48;;;;;;;;;;5039579;28;20737;-85
2024/01/13 03:07:17;;;;;;;25.15;12.40;;;;;;;;;;5035264;28;20049;-85
2024/01/13 03:09:43;;;;;;;27.00;13.23;;;;;;;;;;5038501;28;20033;-82
2024/01/13 03:12:09;;;;;;;28.35;14.13;;;;;;;;;;5033106;28;20029;-82
2024/01/13 03:14:35;;;;;;;24.70;12.80;;;;;;;;;;5035498;28;20490;-83
2024/01/13 03:17:01;;;;;;;31.90;14.30;;;;;;;;;;5034768;28;20079;-82
2024/01/13 03:19:28;;;;;;;27.85;15.15;;;0.60;99.90;;;;;;5053876;28;20025;-84
2024/01/13 03:21:57;;;;;;;29.30;14.50;;;0.60;99.90;;;;;;5055053;28;20028;-83
2024/01/13 03:24:25;;;;;;;27.50;12.98;;;0.60;99.90;;;;;;5052244;28;20033;-82
2024/01/13 03:26:51;;;;;;;28.65;13.82;;;;;;;;;;5047622;28;20585;-82
2024/01/13 03:29:17;;;;;;;26.13;13.45;;;;;;;;;;5039105;28;20178;-83
2024/01/13 03:31:46;;;;;;;27.63;14.00;;;0.60;99.90;;;;;;5052990;28;20056;-81
2024/01/13 03:34:12;;;;;;;29.65;14.73;;;;;;;;;;5032154;28;20028;-85
2024/01/13 03:36:38;;;;;;;27.40;13.95;;;;;;;;;;5038401;28;20029;-82
2024/01/13 03:39:05;;;;;;;26.23;13.50;;;;;;;;;;5052920;28;20041;-82
2024/01/13 03:41:31;;;;;;;30.02;14.50;;;;;;;;;;5036091;28;20033;-82
2024/01/13 03:43:57;;;;;;;31.83;14.60;;;;;;;;;;5035680;28;20036;-81
2024/01/13 03:46:24;;;;;;;28.02;14.20;;;;;;;;;;5032443;28;20033;-81
2024/01/13 03:48:53;;;;;;;26.65;13.38;;;;;;;;;;5034112;28;20033;-82
2024/01/13 03:51:19;;;;;;;28.20;14.35;;;;;;;;;;5051396;28;20507;-82
2024/01/13 03:53:45;;;;;;;29.65;13.77;;;;;;;;;;5035585;28;20029;-81
2024/01/13 03:56:11;;;;;;;32.40;14.50;;;;;;;;;;5052909;28;20027;-82
2024/01/13 03:58:38;;;;;;;29.00;14.18;;;;;;;;;;5054763;28;20037;-81
2024/01/13 04:01:04;;;;;;;33.28;15.68;;;;;;;;;;5035085;28;20334;-83
2024/01/13 04:03:30;;;;;;;30.38;14.63;;;;;;;;;;5053623;28;20032;-81
2024/01/13 04:05:58;;;;;;;32.95;14.95;;;;;;;;;;5052912;28;20032;-82
2024/01/13 04:08:24;;;;;;;30.65;14.52;;;;;;;;;;5051078;28;20029;-80
2024/01/13 04:10:50;;;;;;;32.50;14.55;;;;;;;;;;5051830;28;20032;-81
2024/01/13 04:13:17;;;;;;;30.67;15.23;;;;;;;;;;5038180;28;20505;-79
2024/01/13 04:15:43;;;;;;;34.75;16.17;;;;;;;;;;5050138;28;20560;-80
2024/01/13 04:18:09;;;;;;;30.40;15.02;;;;;;;;;;5051484;28;20021;-83
2024/01/13 04:20:35;;;;;;;31.48;14.07;;;;;;;;;;5047920;28;20029;-80
2024/01/13 04:23:04;;;;;;;29.20;13.27;;;;;;;;;;5034748;28;20093;-81
2024/01/13 04:25:32;;;;;;;28.42;13.00;;;;;;;;;;5031366;28;20049;-82
2024/01/13 04:28:01;;;;;;;27.40;12.48;;;;;;;;;;5033991;28;20029;-82
2024/01/13 04:30:30;;;;;;;28.13;13.60;;;0.70;99.90;;;;;;5034402;28;20140;-82
2024/01/13 04:33:01;;;;;;;31.08;13.60;;;0.70;99.90;;;;;;5034305;28;20115;-81
2024/01/13 04:35:28;;;;;;;26.90;13.27;;;0.70;99.90;;;;;;5040872;28;20041;-83
2024/01/13 04:37:55;;;;;;;28.77;14.10;;;0.70;99.90;;;;;;5064702;28;20060;-86
2024/01/13 04:40:33;;;;;;;31.45;14.90;;;0.60;99.90;;;;;;5062311;28;20037;-84
2024/01/13 04:43:02;;;;;;;31.98;15.02;;;;;;;;;;5047004;28;20052;-84
2024/01/13 04:45:28;;;;;;;28.58;15.38;;;;;;;;;;5057631;28;20561;-85
2024/01/13 04:47:54;;;;;;;32.90;15.10;;;;;;;;;;5037825;28;20040;-83
2024/01/13 04:50:22;;;;;;;34.25;14.98;;;;;;;;;;5036938;28;20127;-83
2024/01/13 04:52:56;;;;;;;27.73;13.73;;;;;;;;;;5050395;28;20071;-86
2024/01/13 04:55:22;;;;;;;30.88;15.13;;;;;;;;;;5033226;28;20037;-80
2024/01/13 04:57:51;;;;;;;29.75;13.88;;;;;;;;;;5026208;28;20068;-84
2024/01/13 05:00:20;;;;;;;30.42;13.50;;;0.70;99.90;;;;;;5051764;28;20152;-85
2024/01/13 05:02:46;;;;;;;30.02;14.55;;;;;;;;;;5036687;28;20429;-82
2024/01/13 05:05:12;;;;;;;29.40;13.95;;;;;;;;;;5038822;28;20025;-83
2024/01/13 05:07:38;;;;;;;31.83;14.85;;;;;;;;;;5038205;28;20105;-83
2024/01/13 05:10:08;;;;;;;31.90;14.63;;;0.60;99.90;;;;;;5034743;28;20040;-86
2024/01/13 05:12:34;;;;;;;29.30;13.98;;;;;;;;;;5053780;28;20043;-83
2024/01/13 05:15:00;;;;;;;32.50;15.27;;;;;;;;;;5051236;28;20056;-83
2024/01/13 05:17:25;;;;;;;33.05;14.80;;;0.60;99.90;;;;;;5035911;28;20475;-85
2024/01/13 05:19:51;;;;;;;31.38;14.73;;;0.10;99.90;;;;;;5040507;28;20223;-81
2024/01/13 05:22:23;;;;;;;32.58;14.93;;;0.70;99.90;;;;;;5034859;28;20036;-85
2024/01/13 05:24:49;;;;;;;30.80;14.88;;;;;;;;;;5035694;28;20064;-83
2024/01/13 05:27:15;;;;;;;32.40;15.77;;;;;;;;;;5036282;28;20040;-83
2024/01/13 05:29:41;;;;;;;30.05;14.88;;;;;;;;;;5036593;28;20483;-82
2024/01/13 05:32:10;;;;;;;26.98;12.52;;;;;;;;;;5034743;28;20037;-83
2024/01/13 05:34:36;;;;;;;34.00;15.68;;;;;;;;;;5034824;28;20029;-81
2024/01/13 05:37:02;;;;;;;34.33;15.85;;;;;;;;;;5036589;28;20028;-83
2024/01/13 05:39:28;;;;;;;33.55;14.65;;;;;;;;;;5052565;28;20076;-81
2024/01/13 05:42:00;;;;;;;34.67;15.93;;;;;;;;;;5035124;28;20038;-82
2024/01/13 05:44:32;;;;;;;33.40;16.17;;;0.70;99.90;;;;;;5053588;28;20030;-85
2024/01/13 05:46:58;;;;;;;33.67;15.38;;;;;;;;;;5053744;28;20312;-81
2024/01/13 05:49:27;;;;;;;30.45;15.32;;;;;;;;;;5037267;28;20036;-82
2024/01/13 05:51:53;;;;;;;35.47;15.27;;;;;;;;;;5031447;28;20029;-80
2024/01/13 05:54:21;;;;;;;39.03;16.65;;;0.70;99.90;;;;;;5034735;28;20439;-84
2024/01/13 05:56:50;;;;;;;33.65;14.45;;;0.70;99.90;;;;;;5054620;28;20112;-83
2024/01/13 05:59:16;;;;;;;17.42;7.85;;;;;;;;;;5052550;28;20025;-82
2024/01/13 06:01:44;;;;;;;7.78;3.85;;;;;;;;;;5053484;28;20458;-80
2024/01/13 06:04:10;;;;;;;10.60;5.18;;;;;;;;;;5034875;28;20043;-81
2024/01/13 06:06:36;;;;;;;9.85;5.25;;;0.70;99.90;;;;;;5036665;28;20517;-83
2024/01/13 06:09:02;;;;;;;10.52;5.07;;;;;;;;;;5054272;28;20029;-84
2024/01/13 06:11:36;;;;;;;11.70;6.10;;;;;;;;;;5035127;28;20043;-82
2024/01/13 06:14:02;;;;;;;7.47;3.75;;;;;;;;;;5053230;28;20098;-80
2024/01/13 06:16:31;;;;;;;9.90;4.20;;;0.90;99.90;;;;;;5031867;28;20033;-81
2024/01/13 06:19:02;;;;;;;7.35;3.90;;;0.90;99.90;;;;;;5054383;28;20040;-83
2024/01/13 06:21:28;;;;;;;9.05;4.25;;;;;;;;;;5032501;28;20033;-82
2024/01/13 06:23:56;;;;;;;10.73;5.10;;;;;;;;;;5039147;28;20082;-84
2024/01/13 06:26:24;;;;;;;12.95;6.38;;;;;;;;;;5054973;28;20407;-81
2024/01/13 06:28:56;;;;;;;16.23;8.00;;;0.90;99.90;;;;;;5034405;28;20017;-81
2024/01/13 06:31:22;;;;;;;16.05;7.55;;;;;;;;;;5033401;28;20041;-82
2024/01/13 06:33:48;;;;;;;13.65;6.43;;;;;;;;;;5036030;28;20041;-84
2024/01/13 06:36:14;;;;;;;11.90;5.45;;;;;;;;;;5035850;28;20033;-83
2024/01/13 06:38:47;;;;;;;9.35;4.70;;;;;;;;;;5037578;28;20815;-86
2024/01/13 06:41:13;;;;;;;10.98;5.13;;;;;;;;;;5037172;28;20025;-80
2024/01/13 06:43:42;;;;;;;11.70;6.78;;;;;;;;;;5054274;28;20049;-84
2024/01/13 06:46:08;;;;;;;10.50;5.68;;;0.80;99.90;;;;;;5035987;28;20033;-83
2024/01/13 06:48:37;;;;;;;9.98;5.38;;;0.80;99.90;;;;;;5039473;28;20500;-82
2024/01/13 06:51:04;;;;;;;11.98;5.38;;;;;;;;;;5035647;28;20040;-82
2024/01/13 06:53:30;;;;;;;8.77;4.43;;;;;;;;;;5052150;28;20119;-82
2024/01/13 06:55:59;;;;;;;7.43;3.60;;;0.80;99.90;;;;;;5054215;28;20044;-83
2024/01/13 06:58:25;;;;;;;8.18;3.40;;;;;;;;;;5036654;28;20040;-84
2024/01/13 07:00:51;;;;;;;7.70;3.88;;;;;;;;;;5033568;28;20491;-81
2024/01/13 07:03:19;;;;;;;7.95;3.58;;;0.80;99.90;;;;;;5036826;28;20025;-87
2024/01/13 07:05:48;;;;;;;9.20;4.25;;;3.30;99.90;;;;;;5058314;28;20029;-83
2024/01/13 07:08:14;;;;;;;11.45;5.10;;;;;;;;;;5051989;28;20107;-83
2024/01/13 07:10:43;;;;;;;9.68;4.68;;;;;;;;;;5055754;28;20463;-85
2024/01/13 07:13:09;;;;;;;9.63;4.80;;;;;;;;;;5053958;28;20033;-83
2024/01/13 07:15:35;;;;;;;9.68;4.45;;;;;;;;;;5034462;28;20029;-83
2024/01/13 07:18:01;;;;;;;9.40;4.20;;;;;;;;;;5035166;28;20033;-81
2024/01/13 07:20:28;;;;;;;11.52;5.38;;;;;;;;;;5052263;28;20037;-89
2024/01/13 07:22:54;;;;;;;9.93;5.32;;;;;;;;;;5057585;28;20037;-82
2024/01/13 07:25:22;;;;;;;10.07;6.07;;;;;;;;;;5044371;28;20025;-87
2024/01/13 07:27:49;;;;;;;11.45;6.28;;;;;;;;;;5065202;28;20044;-82
2024/01/13 07:30:15;;;;;;;10.18;5.20;;;;;;;;;;5059607;28;20336;-82
2024/01/13 07:32:41;;;;;;;9.63;5.03;;;;;;;;;;5045808;28;20037;-83
2024/01/13 07:35:07;;;;;;;11.43;6.30;;;;;;;;;;5062230;28;20704;-81
2024/01/13 07:37:33;;;;;;;12.02;5.18;;;;;;;;;;5048289;28;20033;-84
2024/01/13 07:40:08;;;;;;;12.73;5.05;;;0.90;99.90;;;;;;5065566;28;20084;-85
2024/01/13 07:42:34;;;;;;;10.43;4.72;;;;;;;;;;5066641;28;20033;-85
2024/01/13 07:45:00;;;;;;;15.90;5.03;;;;;;;;;;5048026;28;20033;-88
2024/01/13 07:47:29;;;;;;;12.30;5.65;;;;;;;;;;5049347;28;20085;-83
2024/01/13 07:50:18;;;;;;;11.73;5.72;;;0.80;99.90;;;;;;5051487;28;20037;-87
2024/01/13 07:52:44;;;;;;;10.30;5.45;;;;;;;;;;5040750;28;20036;-87
2024/01/13 07:55:10;;;;;;;9.70;5.63;;;;;;;;;;5060983;28;20104;-88
2024/01/13 07:57:36;;;;;;;17.08;8.82;;;;;;;;;;5042556;28;20056;-86
2024/01/13 08:00:03;;;;;;;11.32;6.10;;;;;;;;;;5061015;28;20327;-86
2024/01/13 08:02:29;;;;;;;11.10;5.55;;;;;;;;;;5062498;28;20100;-83
2024/01/13 08:05:00;;;;;;;9.80;5.05;;;;;;;;;;5042924;28;20024;-85
2024/01/13 08:07:29;;;;;;;11.60;5.72;;;;;;;;;;5041801;28;20059;-85
2024/01/13 08:09:55;;;;;;;9.20;5.07;;;;;;;;;;5061696;28;20035;-86
2024/01/13 08:12:21;;;;;;;9.82;5.30;;;;;;;;;;5048934;28;20032;-85
2024/01/13 08:14:47;;;;;;;10.68;5.53;;;;;;;;;;5060086;28;20067;-86
2024/01/13 08:17:13;;;;;;;11.55;5.85;;;;;;;;;;5042172;28;20190;-87
2024/01/13 08:19:40;;;;;;;9.65;4.80;;;;;;;;;;5070661;28;20034;-89
2024/01/13 08:22:14;;;;;;;9.52;4.72;;;0.70;99.90;;;;;;5070101;28;20033;-88
2024/01/13 08:24:45;;;;;;;12.88;6.03;;;0.70;99.90;;;;;;5071923;28;20017;-88
2024/01/13 08:27:11;;;;;;;11.05;5.88;;;;;;;;;;5054687;28;20077;-91
2024/01/13 08:29:37;;;;;;;12.10;5.68;;;;;;;;;;5051466;28;20036;-84
2024/01/13 08:32:04;;;;;;;16.83;5.25;;;;;;;;;;5066662;28;20028;-85
2024/01/13 08:34:33;;;;;;;11.77;5.82;;;0.80;99.90;;;;;;5035197;28;20056;-87
2024/01/13 08:36:59;;;;;;;11.60;5.82;;;;;;;;;;5060268;28;20112;-86
2024/01/13 08:39:25;;;;;;;13.13;6.35;;;;;;;;;;5066881;28;20033;-88
2024/01/13 08:41:51;;;;;;;10.90;5.68;;;;;;;;;;5048044;28;20037;-87
2024/01/13 08:44:17;;;;;;;10.63;5.60;;;;;;;;;;5062263;28;20025;-85
2024/01/13 08:46:46;;;;;;;12.23;6.07;;;0.90;99.90;;;;;;5044510;28;20020;-88
2024/01/13 08:49:13;;;;;;;12.88;7.00;;;;;;;;;;5046644;28;20112;-85
2024/01/13 08:51:42;;;;;;;13.13;6.30;;;;;;;;;;5047368;28;20056;-91
2024/01/13 08:54:11;;;;;;;16.67;7.18;;;;;;;;;;5065348;28;20036;-84
2024/01/13 08:56:37;;;;;;;14.25;7.07;;;;;;;;;;5060334;28;20036;-86
2024/01/13 08:59:03;;;;;;;13.57;7.07;;;;;;;;;;5047768;28;20029;-84
2024/01/13 09:01:29;;;;;;;18.30;8.90;;;;;;;;;;5044422;28;20040;-86
2024/01/13 09:03:55;;;;;;;16.02;8.32;;;;;;;;;;5045579;28;20032;-92
2024/01/13 09:06:24;;;;;;;17.38;7.28;;;;;;;;;;5035602;28;20041;-87
2024/01/13 09:08:50;;;;;;;13.30;6.68;;;;;;;;;;5047127;28;20029;-85
2024/01/13 09:11:17;;;;;;;14.45;7.15;;;;;;;;;;5045700;28;20033;-86
2024/01/13 09:13:43;;;;;;;16.52;8.40;;;;;;;;;;5043759;28;20049;-89
2024/01/13 09:16:09;;;;;;;16.90;7.90;;;;;;;;;;5042596;28;20751;-85
2024/01/13 09:18:38;;;;;;;17.60;7.95;;;;;;;;;;5038965;28;20244;-89
2024/01/13 09:21:04;;;;;;;14.48;7.28;;;;;;;;;;5042265;28;20206;-86
2024/01/13 09:23:30;;;;;;;14.05;8.30;;;;;;;;;;5063579;28;20029;-90
2024/01/13 09:25:56;;;;;;;17.42;9.25;;;;;;;;;;5045807;28;20021;-85
2024/01/13 09:28:26;;;;;;;16.73;9.20;;;1.00;99.90;;;;;;5057827;28;20033;-88
2024/01/13 09:30:53;;;;;;;16.83;8.48;;;;;;;;;;5056879;28;20037;-85
2024/01/13 09:33:29;;;;;;;;;;;;;;;;;;;;;
2024/01/13 09:35:58;;;;;;;14.75;8.52;;;;;;;;;;5063977;28;20088;-90
2024/01/13 09:38:27;;;;;;;16.67;8.95;;;1.20;99.90;;;;;;5045684;28;20045;-84
2024/01/13 09:41:01;;;;;;;18.25;9.40;;;1.30;99.90;;;;;;5052076;28;20040;-84
2024/01/13 09:44:05;;;;;;;20.63;10.15;;;1.20;99.90;;;;;;5045983;28;20100;-85
2024/01/13 09:46:31;;;;;;;21.13;10.27;;;;;;;;;;5040448;28;20033;-83
2024/01/13 09:49:00;;;;;;;16.17;9.27;;;;;;;;;;5040773;28;20043;-87
2024/01/13 09:51:32;;;;;;;17.17;9.85;;;1.30;99.90;;;;;;5058733;28;20029;-87
2024/01/13 09:54:11;;;;;;;17.02;10.15;;;1.30;99.90;;;;;;5057926;28;20040;-85
2024/01/13 09:56:45;;;;;;;19.70;11.68;;;1.20;99.90;;;;;;5038208;28;20061;-88
2024/01/13 09:59:11;;;;;;;23.48;12.45;;;;;;;;;;5040025;28;20083;-87
2024/01/13 10:01:41;;;;;;;23.88;12.93;;;1.10;99.90;;;;;;5055008;28;20039;-86
2024/01/13 10:04:08;;;;;;;20.48;11.70;;;;;;;;;;5050280;28;20041;-82
2024/01/13 10:06:35;;;;;;;23.73;12.15;;;;;;;;;;5036825;28;20021;-84
2024/01/13 10:09:08;;;;;;;21.83;12.55;;;;;;;;;;5055145;28;20112;-84
2024/01/13 10:11:37;;;;;;;19.98;12.20;;;;;;;;;;5059470;28;20116;-87
2024/01/13 10:14:05;;;;;;;23.08;11.90;;;;;;;;;;5040211;28;20059;-84
2024/01/13 10:16:31;;;;;;;22.88;12.07;;;;;;;;;;5042897;28;20040;-88
2024/01/13 10:19:11;;;;;;;19.67;10.75;;;;;;;;;;5051844;28;20047;-82
2024/01/13 10:21:40;;;;;;;22.98;12.45;;;;;;;;;;5035038;28;20117;-82
2024/01/13 10:24:06;;;;;;;19.52;11.07;;;;;;;;;;5041553;28;20029;-85
2024/01/13 10:26:32;;;;;;;26.42;12.55;;;;;;;;;;5056666;28;20045;-89
2024/01/13 10:28:58;;;;;;;21.10;12.13;;;;;;;;;;5040739;28;20112;-86
2024/01/13 10:31:25;;;;;;;24.50;13.00;;;;;;;;;;5059843;28;20040;-86
2024/01/13 10:33:51;;;;;;;21.75;11.68;;;;;;;;;;5057900;28;20033;-86
2024/01/13 10:36:24;;;;;;;22.30;12.43;;;1.00;99.90;;;;;;5028721;28;20037;-87
2024/01/13 10:38:51;;;;;;;21.33;11.85;;;;;;;;;;5044463;28;20041;-87
2024/01/13 10:41:17;;;;;;;19.45;10.70;;;;;;;;;;5048696;28;20025;-82
2024/01/13 10:43:47;;;;;;;25.88;13.35;;;;;;;;;;5058114;28;20077;-82
2024/01/13 10:46:15;;;;;;;18.85;10.57;;;1.20;99.90;;;;;;5036209;28;20021;-82
2024/01/13 10:48:46;;;;;;;19.38;10.18;;;1.20;99.90;;;;;;5053841;28;20037;-85
2024/01/13 10:51:18;;;;;;;20.13;11.60;;;;;;;;;;5053707;28;20479;-84
2024/01/13 10:53:47;;;;;;;19.35;9.93;;;1.10;99.90;;;;;;5034035;28;20041;-86
2024/01/13 10:56:15;;;;;;;19.95;10.35;;;1.00;99.90;;;;;;5030819;28;20037;-88
2024/01/13 10:58:42;;;;;;;17.33;9.73;;;;;;;;;;5056041;28;20045;-85
2024/01/13 11:01:08;;;;;;;20.02;11.15;;;;;;;;;;5050100;28;20033;-84
2024/01/13 11:03:39;;;;;;;19.58;10.27;;;1.30;99.90;;;;;;5033042;28;20037;-85
2024/01/13 11:06:05;;;;;;;21.60;11.13;;;;;;;;;;5037620;28;20025;-87
2024/01/13 11:08:31;;;;;;;20.95;11.07;;;;;;;;;;5055734;28;20041;-84
2024/01/13 11:11:00;;;;;;;19.75;10.75;;;1.30;99.90;;;;;;5038993;28;20047;-86
2024/01/13 11:13:29;;;;;;;21.42;11.75;;;1.20;99.90;;;;;;5059093;28;20037;-84
2024/01/13 11:16:05;;;;;;;16.73;10.35;;;1.30;99.90;;;;;;5059978;28;20037;-84
2024/01/13 11:18:44;;;;;;;18.90;10.15;;;1.30;99.90;;;;;;5060826;28;20049;-85
2024/01/13 11:21:16;;;;;;;21.20;11.30;;;1.40;99.90;;;;;;5039196;28;20037;-84
2024/01/13 11:23:54;;;;;;;21.23;10.95;;;;;;;;;;5042836;28;20518;-80
2024/01/13 11:26:23;;;;;;;14.77;8.90;;;;;;;;;;5041319;28;20531;-81
2024/01/13 11:28:52;;;;;;;17.27;9.85;;;1.30;99.90;;;;;;5057033;28;20037;-85
2024/01/13 11:31:39;;;;;;;16.52;9.25;;;;;;;;;;5056156;28;20033;-83
2024/01/13 11:34:10;;;;;;;16.92;8.75;;;1.20;99.90;;;;;;5038893;28;20426;-83
2024/01/13 11:36:39;;;;;;;16.45;9.65;;;1.10;99.90;;;;;;5052296;28;20032;-86
2024/01/13 11:39:06;;;;;;;17.40;9.70;;;1.00;99.90;;;;;;5054595;28;20079;-82
2024/01/13 11:41:41;;;;;;;16.40;9.15;;;1.00;99.90;;;;;;5058778;28;20025;-82
2024/01/13 11:44:09;;;;;;;16.40;8.70;;;1.10;99.90;;;;;;5039782;28;20029;-85
2024/01/13 11:46:56;;;;;;;19.88;10.30;;;1.20;99.90;;;;;;5040916;28;20510;-82
2024/01/13 11:49:31;;;;;;;17.92;9.68;;;;;;;;;;5038143;28;20041;-82
2024/01/13 11:52:01;;;;;;;16.33;9.13;;;;;;;;;;5057910;28;20414;-83
2024/01/13 11:54:28;;;;;;;18.10;9.70;;;;;;;;;;5058014;28;20024;-81
2024/01/13 11:56:54;;;;;;;17.67;9.30;;;;;;;;;;5055960;28;20085;-84
2024/01/13 11:59:20;;;;;;;15.20;9.23;;;;;;;;;;5056944;28;20030;-89
2024/01/13 12:01:47;;;;;;;16.83;8.63;;;;;;;;;;5054996;28;20088;-84
2024/01/13 12:04:17;;;;;;;17.25;9.48;;;;;;;;;;5075116;28;20032;-85
2024/01/13 12:06:45;;;;;;;17.80;10.13;;;;;;;;;;5069209;28;20044;-85
2024/01/13 12:09:12;;;;;;;20.25;10.20;;;;;;;;;;5057913;28;20032;-85
2024/01/13 12:11:38;;;;;;;20.60;10.35;;;;;;;;;;5040601;28;20120;-83
2024/01/13 12:14:05;;;;;;;18.83;10.82;;;;;;;;;;5043949;28;20152;-84
2024/01/13 12:16:31;;;;;;;23.27;12.43;;;;;;;;;;5040846;28;20043;-80
2024/01/13 12:19:01;;;;;;;25.00;12.02;;;;;;;;;;5039856;28;20044;-81
2024/01/13 12:21:27;;;;;;;23.02;11.98;;;;;;;;;;5042571;28;20029;-81
2024/01/13 12:23:53;;;;;;;25.33;12.27;;;;;;;;;;5051879;28;20514;-82
2024/01/13 12:26:29;;;;;;;25.75;12.93;;;;;;;;;;5057986;28;20028;-82
2024/01/13 12:28:56;;;;;;;25.15;12.40;;;;;;;;;;5059236;28;20029;-83
2024/01/13 12:31:23;;;;;;;23.65;11.23;;;;;;;;;;5059880;28;20045;-83
2024/01/13 12:33:50;;;;;;;22.48;13.00;;;;;;;;;;5040626;28;20109;-87
2024/01/13 12:36:16;;;;;;;27.25;12.85;;;;;;;;;;5060092;28;20048;-82
2024/01/13 12:38:53;;;;;;;27.45;14.02;;;;;;;;;;5057820;28;20035;-83
2024/01/13 12:41:22;;;;;;;30.52;15.05;;;;;;;;;;5054729;28;20556;-83
2024/01/13 12:43:48;;;;;;;23.48;13.00;;;;;;;;;;5038380;28;20126;-86
2024/01/13 12:46:14;;;;;;;22.02;12.45;;;;;;;;;;5060980;28;20048;-83
2024/01/13 12:49:13;;;;;;;25.58;13.00;;;1.00;99.90;;;;;;5054985;28;20041;-82
2024/01/13 12:51:50;;;;;;;29.00;13.70;;;1.00;99.90;;;;;;4965509;28;20535;-81
2024/01/13 12:54:17;;;;;;;32.95;15.27;;;1.00;99.90;;;;;;4976281;28;20050;-87
2024/01/13 12:56:44;;;;;;;34.33;16.55;;;0.90;99.90;;;;;;5020425;28;20040;-83
2024/01/13 12:59:10;;;;;;;35.92;16.00;;;;;;;;;;5055692;28;20029;-82
2024/01/13 13:01:37;;;;;;;36.47;17.25;;;;;;;;;;5056073;28;20044;-85
2024/01/13 13:04:04;;;;;;;33.92;16.52;;;0.80;99.90;;;;;;5054967;28;20036;-85
2024/01/13 13:06:33;;;;;;;33.08;16.35;;;0.70;99.90;;;;;;5038286;28;20500;-82
2024/01/13 13:09:04;;;;;;;33.40;16.98;;;;;;;;;;5038571;28;20057;-83
2024/01/13 13:11:33;;;;;;;39.33;17.60;;;;;;;;;;5037504;28;20063;-84
2024/01/13 13:14:00;;;;;;;34.45;16.65;;;;;;;;;;5037558;28;20033;-84
2024/01/13 13:16:26;;;;;;;32.50;15.77;;;;;;;;;;5055609;28;20044;-85
2024/01/13 13:18:52;;;;;;;32.40;15.13;;;;;;;;;;5037388;28;20037;-88
2024/01/13 13:21:18;;;;;;;32.97;15.02;;;;;;;;;;5034587;28;20115;-85
2024/01/13 13:23:46;;;;;;;30.25;14.85;;;;;;;;;;5058752;28;20024;-83
2024/01/13 13:26:15;;;;;;;28.77;13.82;;;;;;;;;;5055802;28;20502;-82
2024/01/13 13:28:42;;;;;;;30.95;15.50;;;;;;;;;;5056463;28;20096;-83
2024/01/13 13:31:08;;;;;;;33.30;14.80;;;;;;;;;;5036080;28;20096;-85
2024/01/13 13:33:37;;;;;;;32.42;15.32;;;;;;;;;;5054416;28;20033;-81
2024/01/13 13:36:07;;;;;;;30.45;14.15;;;0.80;99.90;;;;;;5036796;28;20037;-82
2024/01/13 13:38:33;;;;;;;30.48;14.90;;;;;;;;;;5048675;28;20132;-84
2024/01/13 13:40:59;;;;;;;29.08;13.65;;;;;;;;;;5053670;28;20024;-83
2024/01/13 13:43:26;;;;;;;31.08;14.88;;;;;;;;;;5034491;28;20105;-82
2024/01/13 13:45:55;;;;;;;31.27;16.23;;;;;;;;;;5035282;28;20028;-83
2024/01/13 13:48:33;;;;;;;34.22;16.58;;;;;;;;;;5048688;28;20093;-83
2024/01/13 13:50:59;;;;;;;32.00;15.88;;;;;;;;;;5034376;28;20024;-84
2024/01/13 13:53:32;;;;;;;33.58;15.52;;;;;;;;;;5051886;28;20029;-80
2024/01/13 13:55:58;;;;;;;30.58;15.35;;;;;;;;;;5035564;28;20513;-83